sensor_id;sensor_type;location;lat;lon;timestamp;pressure;altitude;pressure_sealevel;temperature;humidity
31011;BME280;26395;53.412;19.598;2023-03-22T00:12:50;100202.63;;;7.61;68.39
31011;BME280;26395;53.412;19.598;2023-03-22T00:27:54;100193.34;;;7.86;69.92
31011;BME280;26395;53.412;19.598;2023-03-22T00:42:57;100186.65;;;8.49;74.65
31011;BME280;26395;53.412;19.598;2023-03-22T00:58:02;100174.80;;;8.90;75.02
31011;BME280;26395;53.412;19.598;2023-03-22T01:13:06;100157.77;;;9.02;76.60
31011;BME280;26395;53.412;19.598;2023-03-22T01:28:10;100140.10;;;9.18;76.78
31011;BME280;26395;53.412;19.598;2023-03-22T01:43:15;100122.31;;;9.32;77.16
31011;BME280;26395;53.412;19.598;2023-03-22T01:58:19;100096.45;;;9.42;77.82
31011;BME280;26395;53.412;19.598;2023-03-22T02:14:26;100069.42;;;9.38;78.04
31011;BME280;26395;53.412;19.598;2023-03-22T02:29:44;100061.85;;;9.16;78.13
31011;BME280;26395;53.412;19.598;2023-03-22T03:00:15;100050.78;;;9.19;78.87
31011;BME280;26395;53.412;19.598;2023-03-22T03:15:21;100043.96;;;9.22;80.25
31011;BME280;26395;53.412;19.598;2023-03-22T03:30:37;100040.74;;;9.14;80.15
31011;BME280;26395;53.412;19.598;2023-03-22T03:45:43;100046.74;;;9.09;80.59
31011;BME280;26395;53.412;19.598;2023-03-22T04:00:47;100041.34;;;9.13;80.30
31011;BME280;26395;53.412;19.598;2023-03-22T04:16:09;100040.31;;;9.17;81.23
31011;BME280;26395;53.412;19.598;2023-03-22T04:31:13;100035.95;;;9.13;81.76
31011;BME280;26395;53.412;19.598;2023-03-22T04:46:24;100031.17;;;9.32;81.37
31011;BME280;26395;53.412;19.598;2023-03-22T05:01:34;100024.39;;;9.58;80.77
31011;BME280;26395;53.412;19.598;2023-03-22T05:16:45;100014.27;;;9.54;82.59
31011;BME280;26395;53.412;19.598;2023-03-22T05:31:48;100008.27;;;9.61;83.74
31011;BME280;26395;53.412;19.598;2023-03-22T05:46:51;99993.02;;;9.67;84.33
31011;BME280;26395;53.412;19.598;2023-03-22T06:02:07;99971.66;;;9.90;84.32
31011;BME280;26395;53.412;19.598;2023-03-22T06:17:10;99976.42;;;10.07;84.89
31011;BME280;26395;53.412;19.598;2023-03-22T06:32:15;99971.80;;;10.07;86.02
31011;BME280;26395;53.412;19.598;2023-03-22T06:47:19;99975.06;;;10.14;86.24
31011;BME280;26395;53.412;19.598;2023-03-22T07:02:31;99965.60;;;10.12;88.82
31011;BME280;26395;53.412;19.598;2023-03-22T07:17:49;99956.48;;;10.22;89.90
31011;BME280;26395;53.412;19.598;2023-03-22T07:32:52;99947.04;;;10.34;90.75
31011;BME280;26395;53.412;19.598;2023-03-22T07:47:56;99945.41;;;10.21;92.47
31011;BME280;26395;53.412;19.598;2023-03-22T08:03:20;99943.47;;;10.20;93.69
31011;BME280;26395;53.412;19.598;2023-03-22T08:18:32;99935.72;;;10.28;95.43
31011;BME280;26395;53.412;19.598;2023-03-22T08:33:36;99925.63;;;10.45;96.53
31011;BME280;26395;53.412;19.598;2023-03-22T08:48:40;99929.54;;;10.68;96.93
31011;BME280;26395;53.412;19.598;2023-03-22T09:03:49;99928.20;;;10.96;97.49
31011;BME280;26395;53.412;19.598;2023-03-22T09:18:53;99931.98;;;11.35;97.25
31011;BME280;26395;53.412;19.598;2023-03-22T09:33:57;99919.24;;;11.65;97.66
31011;BME280;26395;53.412;19.598;2023-03-22T09:49:04;99916.91;;;12.03;97.46
31011;BME280;26395;53.412;19.598;2023-03-22T10:04:30;99916.67;;;11.93;99.26
31011;BME280;26395;53.412;19.598;2023-03-22T10:19:57;99911.64;;;12.09;99.90
31011;BME280;26395;53.412;19.598;2023-03-22T10:35:02;99907.36;;;12.41;99.62
31011;BME280;26395;53.412;19.598;2023-03-22T10:50:21;99900.19;;;12.51;99.95
31011;BME280;26395;53.412;19.598;2023-03-22T11:05:28;99887.96;;;12.58;99.99
31011;BME280;26395;53.412;19.598;2023-03-22T11:20:33;99884.05;;;12.77;100.00
31011;BME280;26395;53.412;19.598;2023-03-22T11:35:38;99878.63;;;13.02;100.00
31011;BME280;26395;53.412;19.598;2023-03-22T11:50:43;99872.48;;;13.42;99.55
31011;BME280;26395;53.412;19.598;2023-03-22T12:05:49;99862.23;;;13.58;98.59
31011;BME280;26395;53.412;19.598;2023-03-22T12:20:56;99855.11;;;13.67;98.57
31011;BME280;26395;53.412;19.598;2023-03-22T12:36:04;99839.35;;;13.91;98.11
31011;BME280;26395;53.412;19.598;2023-03-22T12:51:11;99826.48;;;14.00;97.67
31011;BME280;26395;53.412;19.598;2023-03-22T13:06:52;99823.91;;;14.21;97.13
31011;BME280;26395;53.412;19.598;2023-03-22T13:22:17;99819.31;;;14.58;95.30
31011;BME280;26395;53.412;19.598;2023-03-22T13:37:43;99803.46;;;15.13;93.63
31011;BME280;26395;53.412;19.598;2023-03-22T13:53:05;99794.77;;;15.00;92.84
31011;BME280;26395;53.412;19.598;2023-03-22T14:08:19;99776.64;;;15.36;91.70
31011;BME280;26395;53.412;19.598;2023-03-22T14:23:36;99760.92;;;15.97;90.32
31011;BME280;26395;53.412;19.598;2023-03-22T14:38:43;99745.47;;;16.54;88.50
31011;BME280;26395;53.412;19.598;2023-03-22T14:53:47;99727.54;;;16.80;87.89
31011;BME280;26395;53.412;19.598;2023-03-22T15:08:49;99712.30;;;17.47;84.91
31011;BME280;26395;53.412;19.598;2023-03-22T15:24:11;99695.35;;;17.50;83.56
31011;BME280;26395;53.412;19.598;2023-03-22T15:39:22;99697.88;;;17.88;82.91
31011;BME280;26395;53.412;19.598;2023-03-22T15:54:29;99696.02;;;16.76;83.98
31011;BME280;26395;53.412;19.598;2023-03-22T16:09:34;99699.73;;;16.16;85.68
31011;BME280;26395;53.412;19.598;2023-03-22T16:24:36;99694.63;;;15.90;87.19
31011;BME280;26395;53.412;19.598;2023-03-22T16:39:39;99692.09;;;15.80;87.73
31011;BME280;26395;53.412;19.598;2023-03-22T16:54:43;99690.58;;;15.72;87.62
31011;BME280;26395;53.412;19.598;2023-03-22T17:09:46;99698.07;;;15.52;87.98
31011;BME280;26395;53.412;19.598;2023-03-22T17:24:49;99708.72;;;15.34;89.57
31011;BME280;26395;53.412;19.598;2023-03-22T17:39:52;99712.30;;;15.20;89.59
31011;BME280;26395;53.412;19.598;2023-03-22T17:54:54;99704.20;;;15.12;88.78
31011;BME280;26395;53.412;19.598;2023-03-22T18:09:56;99708.83;;;15.23;87.17
31011;BME280;26395;53.412;19.598;2023-03-22T18:25:00;99702.44;;;15.14;86.59
31011;BME280;26395;53.412;19.598;2023-03-22T18:40:08;99686.77;;;15.13;85.80
31011;BME280;26395;53.412;19.598;2023-03-22T18:55:12;99686.51;;;14.96;85.94
31011;BME280;26395;53.412;19.598;2023-03-22T19:10:16;99679.98;;;15.07;85.61
31011;BME280;26395;53.412;19.598;2023-03-22T19:25:19;99671.75;;;15.01;85.37
31011;BME280;26395;53.412;19.598;2023-03-22T19:40:22;99658.85;;;14.92;85.56
31011;BME280;26395;53.412;19.598;2023-03-22T19:55:25;99647.73;;;14.83;85.45
31011;BME280;26395;53.412;19.598;2023-03-22T20:10:28;99639.31;;;14.77;85.38
31011;BME280;26395;53.412;19.598;2023-03-22T20:25:31;99628.31;;;14.45;86.76
31011;BME280;26395;53.412;19.598;2023-03-22T20:40:34;99628.42;;;14.33;87.02
31011;BME280;26395;53.412;19.598;2023-03-22T20:55:37;99618.92;;;14.21;87.33
31011;BME280;26395;53.412;19.598;2023-03-22T21:10:39;99613.63;;;14.04;87.68
31011;BME280;26395;53.412;19.598;2023-03-22T21:25:42;99606.95;;;13.94;87.21
31011;BME280;26395;53.412;19.598;2023-03-22T21:40:53;99592.88;;;13.88;87.47
31011;BME280;26395;53.412;19.598;2023-03-22T21:55:57;99597.69;;;13.94;87.16
31011;BME280;26395;53.412;19.598;2023-03-22T22:11:01;99595.55;;;14.00;86.96
31011;BME280;26395;53.412;19.598;2023-03-22T22:26:06;99592.05;;;13.98;86.78
31011;BME280;26395;53.412;19.598;2023-03-22T22:41:12;99580.20;;;14.03;86.40
31011;BME280;26395;53.412;19.598;2023-03-22T22:56:19;99572.80;;;14.15;85.83
31011;BME280;26395;53.412;19.598;2023-03-22T23:11:23;99560.85;;;14.30;84.48
31011;BME280;26395;53.412;19.598;2023-03-22T23:26:26;99560.31;;;14.27;84.04
31011;BME280;26395;53.412;19.598;2023-03-22T23:41:29;99561.17;;;14.14;84.45
31011;BME280;26395;53.412;19.598;2023-03-22T23:56:33;99547.56;;;14.04;84.44
